Time;durP1;ratioP1;P1;durP2;ratioP2;P2;SDS_P1;SDS_P2;PMS_P1;PMS_P2;Temp;Humidity;BMP_temperature;BMP_pressure;BME280_temperature;BME280_humidity;BME280_pressure;Samples;Min_cycle;Max_cycle;Signal;HPM_P1;HPM_P2
2021/08/20 00:01:56;;;;;;;4.70;3.55;;;21.10;65.40;;;;;;5032501;28;20381;-60
2021/08/20 00:04:22;;;;;;;4.28;3.60;;;21.20;65.60;;;;;;5032538;28;20372;-60
2021/08/20 00:06:48;;;;;;;5.03;3.65;;;21.20;65.70;;;;;;5032547;28;20044;-60
2021/08/20 00:09:13;;;;;;;4.28;3.28;;;21.20;65.50;;;;;;5032507;28;20465;-60
2021/08/20 00:11:40;;;;;;;4.55;3.63;;;21.20;65.40;;;;;;5031965;28;20025;-60
2021/08/20 00:14:08;;;;;;;8.85;3.65;;;21.20;65.50;;;;;;5032460;28;20124;-60
2021/08/20 00:16:34;;;;;;;5.18;3.55;;;21.10;65.70;;;;;;5032771;28;20026;-60
2021/08/20 00:19:00;;;;;;;5.65;3.72;;;21.10;65.80;;;;;;5032420;28;20078;-59
2021/08/20 00:21:28;;;;;;;4.65;3.58;;;21.10;66.00;;;;;;5031765;28;20032;-60
2021/08/20 00:23:53;;;;;;;5.30;3.85;;;21.10;66.20;;;;;;5052330;28;20033;-59
2021/08/20 00:26:19;;;;;;;4.78;3.80;;;21.10;66.50;;;;;;5052340;28;20044;-60
2021/08/20 00:28:45;;;;;;;5.78;3.72;;;21.10;66.10;;;;;;5052262;28;20091;-60
2021/08/20 00:31:10;;;;;;;5.72;3.40;;;21.10;66.00;;;;;;5054377;28;20531;-60
2021/08/20 00:33:37;;;;;;;6.22;3.78;;;21.10;66.10;;;;;;5055762;28;20484;-60
2021/08/20 00:36:04;;;;;;;5.10;3.90;;;21.10;66.20;;;;;;5056050;28;20044;-60
2021/08/20 00:38:37;;;;;;;5.38;3.50;;;21.10;66.30;;;;;;5055731;28;20464;-59
2021/08/20 00:41:04;;;;;;;5.15;3.67;;;21.10;66.30;;;;;;5055946;28;20032;-59
2021/08/20 00:43:30;;;;;;;5.20;3.78;;;21.10;66.30;;;;;;5055650;28;20056;-60
2021/08/20 00:45:57;;;;;;;4.80;3.28;;;21.10;66.20;;;;;;5055643;28;20055;-60
2021/08/20 00:48:23;;;;;;;4.85;3.35;;;21.10;66.10;;;;;;5055664;28;20419;-60
2021/08/20 00:51:02;;;;;;;6.85;4.03;;;21.10;66.10;;;;;;5055826;28;20021;-59
2021/08/20 00:53:31;;;;;;;5.95;3.72;;;21.10;66.10;;;;;;5053286;28;20041;-59
2021/08/20 00:56:00;;;;;;;6.50;4.10;;;21.10;66.20;;;;;;5055624;28;20056;-60
2021/08/20 00:58:26;;;;;;;5.60;3.35;;;21.10;66.40;;;;;;5055245;28;20017;-59
2021/08/20 01:00:52;;;;;;;6.80;4.15;;;21.10;66.20;;;;;;5055277;28;20025;-60
2021/08/20 01:03:17;;;;;;;4.57;3.38;;;21.10;66.20;;;;;;5055293;28;20025;-59
2021/08/20 01:05:43;;;;;;;5.47;3.65;;;21.10;66.10;;;;;;5055483;28;20029;-59
2021/08/20 01:08:12;;;;;;;5.30;4.10;;;21.10;65.90;;;;;;5055082;28;20078;-60
2021/08/20 01:10:38;;;;;;;4.65;3.58;;;21.10;66.10;;;;;;5055331;28;20025;-60
2021/08/20 01:13:03;;;;;;;5.43;3.70;;;21.10;65.90;;;;;;5055339;28;20525;-60
2021/08/20 01:15:29;;;;;;;5.82;3.53;;;21.00;65.70;;;;;;5055055;28;20049;-60
2021/08/20 01:17:55;;;;;;;6.20;3.75;;;21.00;65.90;;;;;;5055224;28;20017;-59
2021/08/20 01:20:20;;;;;;;5.05;3.75;;;21.00;66.00;;;;;;5031539;28;20599;-59
2021/08/20 01:22:46;;;;;;;4.03;3.42;;;21.00;66.10;;;;;;5028627;28;20477;-60
2021/08/20 01:25:12;;;;;;;4.65;3.53;;;21.00;65.90;;;;;;5035202;28;20136;-59
2021/08/20 01:27:37;;;;;;;5.60;3.58;;;21.00;65.80;;;;;;5034801;28;20025;-58
2021/08/20 01:30:05;;;;;;;4.63;3.55;;;21.00;65.80;;;;;;5034603;28;20025;-60
2021/08/20 01:32:31;;;;;;;4.72;3.38;;;20.90;66.10;;;;;;5034654;28;20029;-59
2021/08/20 01:34:57;;;;;;;4.72;3.45;;;20.90;66.10;;;;;;5035087;28;20095;-60
2021/08/20 01:37:23;;;;;;;4.63;3.22;;;20.90;66.20;;;;;;5034788;28;20032;-60
2021/08/20 01:39:49;;;;;;;4.20;3.33;;;20.90;65.90;;;;;;5034746;28;20037;-60
2021/08/20 01:42:15;;;;;;;4.18;3.30;;;20.90;65.90;;;;;;5034595;28;20021;-59
2021/08/20 01:44:41;;;;;;;4.78;3.80;;;20.90;65.80;;;;;;5034819;28;20068;-59
2021/08/20 01:47:10;;;;;;;4.68;3.60;;;20.90;66.00;;;;;;5034553;28;20109;-60
2021/08/20 01:49:39;;;;;;;5.68;3.85;;;20.80;65.80;;;;;;5034515;28;20033;-59
2021/08/20 01:52:06;;;;;;;5.80;4.35;;;20.80;65.80;;;;;;5039710;28;20025;-59
2021/08/20 01:54:32;;;;;;;5.32;3.75;;;20.80;65.80;;;;;;5044134;28;20021;-60
2021/08/20 01:56:58;;;;;;;5.00;3.67;;;20.80;66.20;;;;;;5034369;28;20464;-59
2021/08/20 01:59:23;;;;;;;6.50;4.03;;;20.80;66.10;;;;;;5034315;28;20093;-59
2021/08/20 02:01:49;;;;;;;5.40;3.90;;;20.70;66.00;;;;;;5034229;28;20357;-60
2021/08/20 02:04:14;;;;;;;4.93;3.65;;;20.70;65.90;;;;;;5034369;28;20032;-60
2021/08/20 02:06:40;;;;;;;5.45;4.20;;;20.70;66.10;;;;;;5034340;28;20025;-59
2021/08/20 02:09:06;;;;;;;5.13;3.40;;;20.70;66.30;;;;;;5034190;28;20034;-59
2021/08/20 02:11:32;;;;;;;5.60;4.00;;;20.60;66.20;;;;;;5033035;28;20376;-60
2021/08/20 02:13:58;;;;;;;5.03;3.70;;;20.60;66.50;;;;;;5033981;28;20037;-59
2021/08/20 02:16:24;;;;;;;6.63;4.20;;;20.60;66.40;;;;;;5033972;28;20032;-60
2021/08/20 02:18:49;;;;;;;5.07;4.00;;;20.60;66.60;;;;;;5033972;28;20030;-59
2021/08/20 02:21:15;;;;;;;5.50;4.00;;;20.50;67.30;;;;;;5033298;28;20028;-59
2021/08/20 02:23:41;;;;;;;6.15;4.13;;;20.60;66.90;;;;;;5053858;28;20021;-59
2021/08/20 02:26:07;;;;;;;5.18;4.10;;;20.60;66.70;;;;;;5053784;28;20043;-59
2021/08/20 02:28:33;;;;;;;7.68;4.22;;;20.50;66.70;;;;;;5053667;28;20448;-60
2021/08/20 02:30:59;;;;;;;5.53;4.10;;;20.50;66.90;;;;;;5053474;28;20132;-59
2021/08/20 02:33:24;;;;;;;4.90;4.07;;;20.50;67.00;;;;;;5053550;28;20103;-60
2021/08/20 02:35:50;;;;;;;6.30;3.97;;;20.50;67.10;;;;;;5053451;28;20028;-60
2021/08/20 02:38:16;;;;;;;4.50;3.75;;;20.50;67.20;;;;;;5053729;28;20032;-60
2021/08/20 02:40:41;;;;;;;6.55;4.38;;;20.50;67.20;;;;;;5053415;28;20104;-59
2021/08/20 02:43:07;;;;;;;6.65;4.50;;;20.50;67.40;;;;;;5053666;28;20064;-60
2021/08/20 02:45:33;;;;;;;8.02;4.40;;;20.50;67.30;;;;;;5053406;28;20033;-60
2021/08/20 02:47:58;;;;;;;5.20;4.22;;;20.50;67.60;;;;;;5053593;28;20059;-60
2021/08/20 02:50:24;;;;;;;5.45;4.28;;;20.50;67.50;;;;;;5053741;28;20017;-60
2021/08/20 02:52:50;;;;;;;5.78;4.38;;;20.50;67.70;;;;;;5036585;28;20041;-60
2021/08/20 02:55:15;;;;;;;6.10;4.70;;;20.40;67.90;;;;;;5033623;28;20068;-59
2021/08/20 02:57:41;;;;;;;5.90;4.35;;;20.50;67.90;;;;;;5033244;28;20044;-59
2021/08/20 03:00:07;;;;;;;6.05;4.50;;;20.40;67.70;;;;;;5033403;28;20048;-59
2021/08/20 03:02:33;;;;;;;6.07;4.70;;;20.40;67.70;;;;;;5033129;28;20059;-60
2021/08/20 03:04:59;;;;;;;6.22;4.13;;;20.40;68.00;;;;;;5033139;28;20104;-59
2021/08/20 03:07:24;;;;;;;6.18;4.80;;;20.40;68.10;;;;;;5033145;28;20034;-59
2021/08/20 03:09:50;;;;;;;6.70;4.60;;;20.40;67.90;;;;;;5033346;28;20048;-59
2021/08/20 03:12:15;;;;;;;6.40;4.50;;;20.40;68.00;;;;;;5032989;28;20384;-60
2021/08/20 03:14:41;;;;;;;7.78;5.00;;;20.40;67.90;;;;;;5033093;28;20033;-60
2021/08/20 03:17:07;;;;;;;6.55;4.97;;;20.40;67.90;;;;;;5033282;28;20109;-60
2021/08/20 03:19:32;;;;;;;6.95;4.97;;;20.40;67.90;;;;;;5032913;28;20025;-60
2021/08/20 03:21:58;;;;;;;6.25;4.50;;;20.30;67.80;;;;;;5041460;28;20029;-59
2021/08/20 03:24:24;;;;;;;9.70;4.95;;;20.40;67.90;;;;;;5033148;28;20035;-60
2021/08/20 03:26:50;;;;;;;8.10;5.10;;;20.40;67.80;;;;;;5032877;28;20037;-60
2021/08/20 03:29:16;;;;;;;6.53;4.60;;;20.40;67.70;;;;;;5033171;28;20104;-59
2021/08/20 03:31:42;;;;;;;6.18;4.40;;;20.40;67.70;;;;;;5032810;28;20081;-59
2021/08/20 03:34:08;;;;;;;6.00;4.47;;;20.40;67.60;;;;;;5033005;28;20026;-58
2021/08/20 03:36:33;;;;;;;5.18;4.15;;;20.40;67.80;;;;;;5033136;28;20393;-60
2021/08/20 03:38:59;;;;;;;6.05;4.50;;;20.50;67.50;;;;;;5032793;28;20025;-60
2021/08/20 03:41:25;;;;;;;6.45;4.47;;;20.50;67.40;;;;;;5038548;28;20025;-60
2021/08/20 03:43:50;;;;;;;7.18;4.78;;;20.50;67.20;;;;;;5052649;28;20067;-60
2021/08/20 03:46:17;;;;;;;6.68;4.97;;;20.50;67.30;;;;;;5052580;28;20054;-60
2021/08/20 03:48:44;;;;;;;6.53;4.65;;;20.60;67.50;;;;;;5052564;28;20572;-60
2021/08/20 03:51:10;;;;;;;7.93;4.72;;;20.60;67.70;;;;;;5052881;28;20055;-60
2021/08/20 03:53:36;;;;;;;7.22;5.25;;;20.60;67.70;;;;;;5052476;28;20025;-60
2021/08/20 03:56:02;;;;;;;6.03;4.80;;;20.60;67.80;;;;;;5052850;28;20021;-60
2021/08/20 03:58:28;;;;;;;7.82;5.22;;;20.60;67.80;;;;;;5052437;28;20025;-59
2021/08/20 04:00:53;;;;;;;7.03;5.45;;;20.60;67.80;;;;;;5048193;28;20029;-60
2021/08/20 04:03:20;;;;;;;6.43;4.80;;;20.60;67.60;;;;;;5032590;28;20057;-60
2021/08/20 04:05:46;;;;;;;6.82;5.20;;;20.60;67.90;;;;;;5034436;28;20105;-60
2021/08/20 04:08:13;;;;;;;8.02;5.57;;;20.60;67.70;;;;;;5036183;28;20389;-56
2021/08/20 04:10:39;;;;;;;7.07;5.10;;;20.70;68.20;;;;;;5036245;28;20022;-60
2021/08/20 04:13:05;;;;;;;6.20;4.97;;;20.70;67.80;;;;;;5035378;28;20042;-60
2021/08/20 04:15:31;;;;;;;8.88;4.75;;;20.70;67.70;;;;;;5036496;28;20028;-59
2021/08/20 04:17:56;;;;;;;7.20;5.15;;;20.70;67.70;;;;;;5036195;28;20365;-60
2021/08/20 04:20:22;;;;;;;7.00;5.10;;;20.60;67.90;;;;;;5036067;28;20022;-60
2021/08/20 04:22:48;;;;;;;6.43;5.30;;;20.70;68.00;;;;;;5035492;28;20540;-60
2021/08/20 04:25:13;;;;;;;7.53;4.97;;;20.70;68.20;;;;;;5050340;28;20033;-60
2021/08/20 04:27:39;;;;;;;6.70;4.80;;;20.70;68.30;;;;;;5056257;28;20381;-60
2021/08/20 04:30:05;;;;;;;5.95;4.72;;;20.70;68.20;;;;;;5055965;28;20417;-60
2021/08/20 04:32:31;;;;;;;5.65;4.60;;;20.70;68.20;;;;;;5055742;28;20025;-60
2021/08/20 04:34:56;;;;;;;6.70;5.10;;;20.70;68.40;;;;;;5055731;28;20388;-60
2021/08/20 04:37:23;;;;;;;6.85;5.10;;;20.70;68.30;;;;;;5055949;28;20536;-60
2021/08/20 04:39:49;;;;;;;6.43;4.82;;;20.70;68.30;;;;;;5055853;28;20400;-60
2021/08/20 04:42:15;;;;;;;6.35;5.10;;;20.70;68.30;;;;;;5055670;28;20033;-60
2021/08/20 04:44:41;;;;;;;5.65;4.78;;;20.70;68.10;;;;;;5055656;28;20104;-60
2021/08/20 04:47:07;;;;;;;6.90;5.18;;;20.80;68.40;;;;;;5055627;28;20029;-60
2021/08/20 04:49:32;;;;;;;7.97;5.60;;;20.80;68.40;;;;;;5055806;28;20098;-60
2021/08/20 04:51:58;;;;;;;6.75;5.22;;;20.80;68.10;;;;;;5055485;28;20032;-60
2021/08/20 04:54:25;;;;;;;8.35;5.47;;;20.80;68.30;;;;;;5048038;28;20469;-58
2021/08/20 04:56:51;;;;;;;6.75;5.47;;;20.80;68.20;;;;;;5035463;28;20048;-60
2021/08/20 04:59:16;;;;;;;6.82;4.80;;;20.80;68.00;;;;;;5035417;28;20021;-59
2021/08/20 05:01:42;;;;;;;5.95;4.80;;;20.80;68.00;;;;;;5034767;28;20372;-58
2021/08/20 05:04:08;;;;;;;6.20;4.90;;;20.80;68.10;;;;;;5043242;28;20072;-59
2021/08/20 05:06:33;;;;;;;7.40;5.82;;;20.80;68.20;;;;;;5041551;28;20069;-59
2021/08/20 05:09:01;;;;;;;6.65;4.90;;;20.80;67.80;;;;;;5038134;28;20400;-59
2021/08/20 05:11:27;;;;;;;5.80;4.95;;;20.90;67.70;;;;;;5035987;28;20120;-60
2021/08/20 05:13:53;;;;;;;6.57;5.55;;;20.90;67.90;;;;;;5035684;28;20033;-60
2021/08/20 05:16:18;;;;;;;7.18;5.30;;;20.90;68.00;;;;;;5038562;28;20027;-59
2021/08/20 05:18:44;;;;;;;7.05;4.53;;;20.90;67.80;;;;;;5039451;28;20020;-60
2021/08/20 05:21:09;;;;;;;6.47;4.97;;;21.00;67.90;;;;;;5033013;28;20056;-60
2021/08/20 05:23:35;;;;;;;5.72;4.63;;;21.10;67.80;;;;;;5033447;28;20515;-60
2021/08/20 05:26:01;;;;;;;6.47;4.80;;;21.10;67.90;;;;;;5034095;28;20096;-60
2021/08/20 05:28:26;;;;;;;6.50;4.60;;;21.20;68.40;;;;;;5034129;28;20550;-60
2021/08/20 05:30:52;;;;;;;7.18;4.75;;;21.30;68.40;;;;;;5039725;28;20050;-59
2021/08/20 05:33:18;;;;;;;5.18;3.80;;;21.50;68.30;;;;;;5034124;28;20103;-59
2021/08/20 05:35:46;;;;;;;6.55;4.40;;;21.60;68.00;;;;;;5043109;28;20108;-59
2021/08/20 05:38:13;;;;;;;6.65;4.85;;;21.80;68.10;;;;;;5031832;28;20049;-60
2021/08/20 05:40:39;;;;;;;6.38;4.18;;;21.90;67.80;;;;;;5031699;28;20080;-60
2021/08/20 05:43:05;;;;;;;6.63;4.72;;;22.10;67.40;;;;;;5036676;28;20432;-60
2021/08/20 05:45:31;;;;;;;8.18;5.00;;;22.30;67.30;;;;;;5030567;28;20388;-60
2021/08/20 05:47:56;;;;;;;6.18;4.10;;;22.40;66.80;;;;;;5030586;28;20064;-60
2021/08/20 05:50:22;;;;;;;6.32;4.60;;;22.60;66.50;;;;;;5031742;28;20029;-60
2021/08/20 05:52:47;;;;;;;7.25;4.53;;;22.70;65.90;;;;;;5030622;28;20110;-60
2021/08/20 05:55:13;;;;;;;6.72;4.53;;;22.80;65.80;;;;;;5029948;28;20036;-60
2021/08/20 05:57:39;;;;;;;5.97;4.75;;;22.80;64.90;;;;;;5024619;28;20364;-60
2021/08/20 06:00:06;;;;;;;6.30;4.55;;;22.80;65.10;;;;;;5024652;28;20114;-59
2021/08/20 06:02:32;;;;;;;7.32;4.78;;;22.80;65.50;;;;;;5023184;28;20373;-60
2021/08/20 06:04:58;;;;;;;6.38;4.80;;;22.90;64.80;;;;;;5006834;28;20032;-59
2021/08/20 06:07:24;;;;;;;6.22;4.45;;;22.90;64.70;;;;;;5025177;28;20041;-59
2021/08/20 06:09:50;;;;;;;6.32;4.43;;;22.90;64.80;;;;;;5025772;28;20400;-60
2021/08/20 06:12:15;;;;;;;6.15;4.45;;;23.00;64.90;;;;;;5025922;28;20067;-60
2021/08/20 06:14:41;;;;;;;5.97;4.75;;;23.00;64.70;;;;;;5029795;28;20040;-61
2021/08/20 06:17:06;;;;;;;6.88;4.40;;;23.00;64.70;;;;;;5030359;28;20032;-60
2021/08/20 06:19:32;;;;;;;6.82;4.50;;;23.10;64.70;;;;;;5023512;28;20033;-59
2021/08/20 06:21:58;;;;;;;6.43;4.40;;;23.20;64.70;;;;;;5024908;28;20140;-59
2021/08/20 06:24:24;;;;;;;7.40;5.15;;;23.30;64.50;;;;;;5027153;28;20460;-56
2021/08/20 06:26:50;;;;;;;5.53;4.15;;;23.50;64.20;;;;;;5029342;28;20238;-58
2021/08/20 06:29:20;;;;;;;5.95;4.70;;;23.60;63.90;;;;;;5032969;28;20064;-60
2021/08/20 06:31:46;;;;;;;5.40;4.28;;;23.70;63.60;;;;;;5033166;28;20171;-57
2021/08/20 06:34:12;;;;;;;5.93;4.45;;;23.80;63.40;;;;;;5030357;28;20053;-60
2021/08/20 06:36:38;;;;;;;5.95;4.82;;;23.90;63.00;;;;;;5030547;28;20805;-62
2021/08/20 06:39:03;;;;;;;6.22;4.78;;;24.00;63.00;;;;;;5034078;28;20033;-61
2021/08/20 06:41:29;;;;;;;5.70;4.40;;;24.00;62.70;;;;;;5028879;28;20738;-62
2021/08/20 06:43:55;;;;;;;5.95;4.85;;;24.00;62.50;;;;;;5026714;28;20041;-62
2021/08/20 06:46:20;;;;;;;5.90;4.70;;;24.00;62.40;;;;;;5030406;28;20029;-62
2021/08/20 06:48:46;;;;;;;5.38;4.13;;;24.00;62.20;;;;;;5028854;28;20025;-62
2021/08/20 06:51:16;;;;;;;7.72;4.85;;;24.00;62.20;;;;;;5023314;28;20104;-62
2021/08/20 06:53:42;;;;;;;6.20;4.70;;;24.00;62.20;;;;;;5028583;28;20052;-61
2021/08/20 06:56:08;;;;;;;6.88;5.00;;;24.00;62.30;;;;;;5028141;28;20412;-59
2021/08/20 06:58:33;;;;;;;5.70;4.57;;;24.00;62.20;;;;;;5032964;28;20029;-62
2021/08/20 07:00:59;;;;;;;5.65;4.85;;;24.10;62.20;;;;;;5024589;28;20064;-62
2021/08/20 07:03:25;;;;;;;6.07;4.57;;;24.10;62.10;;;;;;5026597;28;20047;-61
2021/08/20 07:05:51;;;;;;;5.82;4.65;;;24.20;62.00;;;;;;5029256;28;20534;-61
2021/08/20 07:08:16;;;;;;;5.90;5.03;;;24.30;61.80;;;;;;5031656;28;20087;-59
2021/08/20 07:10:42;;;;;;;6.70;5.13;;;24.30;61.80;;;;;;5029155;28;20033;-60
2021/08/20 07:13:08;;;;;;;7.32;4.60;;;24.30;61.80;;;;;;5021521;28;20042;-62
2021/08/20 07:15:34;;;;;;;6.47;5.05;;;24.30;61.70;;;;;;5022343;28;20029;-61
2021/08/20 07:18:00;;;;;;;6.18;4.65;;;24.30;61.70;;;;;;5023757;28;20044;-59
2021/08/20 07:20:26;;;;;;;6.20;4.78;;;24.30;61.50;;;;;;5017390;28;20108;-60
2021/08/20 07:22:52;;;;;;;6.32;4.88;;;24.30;61.40;;;;;;5021004;28;20622;-59
2021/08/20 07:25:18;;;;;;;5.85;4.60;;;24.40;61.50;;;;;;5025585;28;20049;-60
2021/08/20 07:27:44;;;;;;;7.07;5.20;;;24.40;61.40;;;;;;5029392;28;20060;-60
2021/08/20 07:30:10;;;;;;;7.15;4.80;;;24.40;61.60;;;;;;5026322;28;20042;-60
2021/08/20 07:32:36;;;;;;;7.25;5.40;;;24.40;61.50;;;;;;5027308;28;20146;-59
2021/08/20 07:35:02;;;;;;;6.88;4.95;;;24.40;61.30;;;;;;5025366;28;20034;-57
2021/08/20 07:37:28;;;;;;;7.90;5.10;;;24.40;61.30;;;;;;5025323;28;20029;-56
2021/08/20 07:39:53;;;;;;;6.53;4.70;;;24.40;61.50;;;;;;5029367;28;20087;-53
2021/08/20 07:42:19;;;;;;;6.50;4.40;;;24.40;61.30;;;;;;5032030;28;20025;-59
2021/08/20 07:44:46;;;;;;;5.97;4.78;;;24.50;61.40;;;;;;5026620;28;20022;-61
2021/08/20 07:47:12;;;;;;;5.28;4.50;;;24.50;61.10;;;;;;5030472;28;20037;-60
2021/08/20 07:49:37;;;;;;;6.78;4.55;;;24.50;61.10;;;;;;5023514;28;20578;-59
2021/08/20 07:52:04;;;;;;;7.03;4.78;;;24.50;61.10;;;;;;5023433;28;20037;-60
2021/08/20 07:54:30;;;;;;;6.15;4.90;;;24.50;61.10;;;;;;5026916;28;20041;-60
2021/08/20 07:56:55;;;;;;;6.00;4.68;;;24.50;61.00;;;;;;5019086;28;20668;-60
2021/08/20 07:59:21;;;;;;;5.57;4.75;;;24.50;61.00;;;;;;5024560;28;20033;-59
2021/08/20 08:01:47;;;;;;;5.32;4.47;;;24.60;60.90;;;;;;5021377;28;20033;-60
2021/08/20 08:04:13;;;;;;;6.95;4.80;;;24.60;60.80;;;;;;5024563;28;20029;-59
2021/08/20 08:06:39;;;;;;;5.63;4.45;;;24.60;60.60;;;;;;5019498;28;20593;-59
2021/08/20 08:09:05;;;;;;;5.43;4.40;;;24.60;60.50;;;;;;5020647;28;20630;-60
2021/08/20 08:11:33;;;;;;;6.25;4.97;;;24.70;60.40;;;;;;5030671;28;20653;-60
2021/08/20 08:14:04;;;;;;;6.40;5.13;;;24.70;60.40;;;;;;5027376;28;20087;-59
2021/08/20 08:16:31;;;;;;;5.45;4.45;;;24.70;60.50;;;;;;5029652;28;20033;-60
2021/08/20 08:18:57;;;;;;;6.60;4.60;;;24.80;60.30;;;;;;5024437;28;20034;-60
2021/08/20 08:21:23;;;;;;;6.50;4.70;;;24.80;60.40;;;;;;5027578;28;20053;-60
2021/08/20 08:23:49;;;;;;;5.53;4.25;;;24.80;60.40;;;;;;5030877;28;20120;-60
2021/08/20 08:26:15;;;;;;;6.15;4.85;;;24.80;60.30;;;;;;5025466;28;20028;-61
2021/08/20 08:28:40;;;;;;;5.22;4.28;;;24.80;60.30;;;;;;5023523;28;20033;-59
2021/08/20 08:31:06;;;;;;;5.05;4.10;;;24.80;60.30;;;;;;5021433;28;20091;-60
2021/08/20 08:33:31;;;;;;;5.20;4.32;;;24.70;60.40;;;;;;5022402;28;20374;-60
2021/08/20 08:35:57;;;;;;;5.32;4.55;;;24.70;60.50;;;;;;5023737;28;20041;-59
2021/08/20 08:38:23;;;;;;;6.50;4.78;;;24.70;60.40;;;;;;5023198;28;20080;-58
2021/08/20 08:40:49;;;;;;;5.82;4.90;;;24.60;60.20;;;;;;5023851;28;20021;-59
2021/08/20 08:43:16;;;;;;;5.03;4.50;;;24.60;60.10;;;;;;5028100;28;20133;-59
2021/08/20 08:45:42;;;;;;;6.80;4.70;;;24.60;60.30;;;;;;5027719;28;21144;-60
2021/08/20 08:48:11;;;;;;;5.38;4.25;;;24.60;60.20;;;;;;5023137;28;20025;-60
2021/08/20 08:50:37;;;;;;;6.97;4.70;;;24.60;60.10;;;;;;5024420;28;20030;-59
2021/08/20 08:53:04;;;;;;;5.20;4.15;;;24.60;60.10;;;;;;5024875;28;20030;-60
2021/08/20 08:55:30;;;;;;;5.38;4.35;;;24.60;60.30;;;;;;5026625;28;20033;-60
2021/08/20 08:57:56;;;;;;;6.32;5.03;;;24.60;60.30;;;;;;5025319;28;20037;-60
2021/08/20 09:00:37;;;;;;;5.50;4.45;;;24.60;60.20;;;;;;5023165;28;20103;-59
2021/08/20 09:03:06;;;;;;;5.97;4.20;;;24.60;60.10;;;;;;5018408;28;20048;-61
2021/08/20 09:05:43;;;;;;;6.13;4.15;;;24.60;60.10;;;;;;5023276;28;20381;-60
2021/08/20 09:08:19;;;;;;;5.45;4.68;;;24.60;60.20;;;;;;5022761;28;20101;-58
2021/08/20 09:10:48;;;;;;;4.95;3.95;;;24.60;60.20;;;;;;5023692;28;20610;-58
2021/08/20 09:13:14;;;;;;;5.57;4.40;;;24.60;60.20;;;;;;5025277;28;20125;-59
2021/08/20 09:15:40;;;;;;;8.35;4.50;;;24.60;60.30;;;;;;5024682;28;20031;-58
2021/08/20 09:18:06;;;;;;;5.15;4.20;;;24.50;60.20;;;;;;5021561;28;20044;-59
2021/08/20 09:20:34;;;;;;;5.40;4.15;;;24.50;60.40;;;;;;5024210;28;20032;-57
2021/08/20 09:23:21;;;;;;;6.30;4.13;;;24.40;60.50;;;;;;5024383;28;20030;-57
2021/08/20 09:25:48;;;;;;;4.95;3.78;;;24.40;60.60;;;;;;5027407;28;20036;-60
2021/08/20 09:28:34;;;;;;;6.25;4.60;;;24.40;60.70;;;;;;5023873;28;20508;-58
2021/08/20 09:31:04;;;;;;;5.68;3.97;;;24.30;60.80;;;;;;5026755;28;20044;-59
2021/08/20 09:33:35;;;;;;;4.70;4.15;;;24.30;60.80;;;;;;5022880;28;20700;-61
2021/08/20 09:36:07;;;;;;;5.13;3.95;;;24.30;61.00;;;;;;5026714;28;20040;-59
2021/08/20 09:38:56;;;;;;;5.35;4.15;;;24.30;61.20;;;;;;5027262;28;20030;-54
2021/08/20 09:41:33;;;;;;;5.22;3.90;;;24.30;61.20;;;;;;5032057;28;20037;-62
2021/08/20 09:44:03;;;;;;;5.10;3.97;;;24.30;61.20;;;;;;5028174;28;20029;-59
2021/08/20 09:46:43;;;;;;;5.10;3.63;;;24.30;61.30;;;;;;5028831;28;20068;-59
2021/08/20 09:49:09;;;;;;;6.30;4.30;;;24.30;61.10;;;;;;5022800;28;20113;-60
2021/08/20 09:51:46;;;;;;;4.97;4.00;;;24.30;61.40;;;;;;5026823;28;20041;-61
2021/08/20 09:54:15;;;;;;;5.72;3.78;;;24.30;61.20;;;;;;5021547;28;20059;-59
2021/08/20 09:56:42;;;;;;;5.45;4.03;;;24.40;61.50;;;;;;5023694;28;20026;-58
2021/08/20 09:59:10;;;;;;;5.25;3.83;;;24.40;61.40;;;;;;5027283;28;20025;-60
2021/08/20 10:01:39;;;;;;;5.18;3.95;;;24.40;61.50;;;;;;5025501;28;20034;-59
2021/08/20 10:04:10;;;;;;;5.82;3.97;;;24.40;61.10;;;;;;5013153;28;20079;-59
2021/08/20 10:06:41;;;;;;;5.68;3.78;;;24.40;61.00;;;;;;5019056;28;20025;-60
2021/08/20 10:09:08;;;;;;;;;;;24.40;61.30;;;;;;5021042;28;20029;-60
2021/08/20 10:11:42;;;;;;;5.72;3.40;;;24.40;61.30;;;;;;5021122;28;19917;-60
2021/08/20 10:14:08;;;;;;;5.55;3.67;;;24.40;61.50;;;;;;5024132;28;20029;-60
2021/08/20 10:16:37;;;;;;;6.57;4.18;;;24.40;61.20;;;;;;5025856;28;20056;-60
2021/08/20 10:19:04;;;;;;;5.90;3.88;;;24.50;61.40;;;;;;5021796;28;20789;-60
2021/08/20 10:21:32;;;;;;;5.93;3.80;;;24.50;61.30;;;;;;5025214;28;20048;-60
2021/08/20 10:23:59;;;;;;;4.72;3.67;;;24.50;61.40;;;;;;5025205;28;20120;-60
2021/08/20 10:26:25;;;;;;;4.50;3.58;;;24.50;61.50;;;;;;5027156;28;20035;-60
2021/08/20 10:28:52;;;;;;;4.68;3.90;;;24.50;61.50;;;;;;5019783;28;20068;-60
2021/08/20 10:31:20;;;;;;;4.72;3.60;;;24.50;61.50;;;;;;5023002;28;20057;-60
2021/08/20 10:33:45;;;;;;;4.10;3.55;;;24.50;61.60;;;;;;5021678;28;20112;-59
2021/08/20 10:36:11;;;;;;;3.95;3.35;;;24.60;61.70;;;;;;5022213;28;20035;-60
2021/08/20 10:38:44;;;;;;;4.65;3.72;;;24.60;61.70;;;;;;5018162;28;20533;-60
2021/08/20 10:41:21;;;;;;;5.10;3.70;;;24.60;61.30;;;;;;5021492;28;20377;-60
2021/08/20 10:43:59;;;;;;;4.75;3.55;;;24.70;61.20;;;;;;5023175;28;20041;-60
2021/08/20 10:46:31;;;;;;;4.63;3.88;;;24.70;61.30;;;;;;5026954;28;20148;-60
2021/08/20 10:49:12;;;;;;;5.72;3.60;;;24.70;61.20;;;;;;5018872;28;20052;-60
2021/08/20 10:51:49;;;;;;;;;;;24.80;60.80;;;;;;5021495;28;20420;-60
2021/08/20 10:54:16;;;;;;;4.13;3.35;;;24.70;60.80;;;;;;5018527;28;19917;-60
2021/08/20 10:56:41;;;;;;;4.95;3.13;;;24.80;60.80;;;;;;5024802;28;20021;-60
2021/08/20 10:59:07;;;;;;;4.07;3.20;;;24.80;60.30;;;;;;5023819;28;20099;-59
2021/08/20 11:01:33;;;;;;;3.60;3.28;;;24.80;60.20;;;;;;5025591;28;20027;-61
2021/08/20 11:03:59;;;;;;;4.22;3.30;;;24.90;60.10;;;;;;5024961;28;20468;-61
2021/08/20 11:06:52;;;;;;;4.13;3.13;;;24.90;60.00;;;;;;5023164;28;20045;-60
2021/08/20 11:09:31;;;;;;;3.65;3.22;;;25.00;59.90;;;;;;5023837;28;20034;-60
2021/08/20 11:11:59;;;;;;;3.47;3.10;;;25.00;59.90;;;;;;5007180;28;20064;-60
2021/08/20 11:14:30;;;;;;;3.53;2.75;;;25.00;59.80;;;;;;5022586;28;20041;-59
2021/08/20 11:16:56;;;;;;;4.38;3.10;;;25.10;59.70;;;;;;5020963;28;20033;-59
2021/08/20 11:19:47;;;;;;;4.53;2.97;;;25.10;59.40;;;;;;5018095;28;20107;-59
2021/08/20 11:22:21;;;;;;;3.67;2.88;;;25.10;59.50;;;;;;5022027;28;20036;-59
2021/08/20 11:25:09;;;;;;;4.07;3.03;;;25.20;59.50;;;;;;5021431;28;20033;-59
2021/08/20 11:27:35;;;;;;;4.18;3.30;;;25.20;59.40;;;;;;5024788;28;20052;-61
2021/08/20 11:30:02;;;;;;;4.93;2.95;;;25.20;59.30;;;;;;5017200;28;20052;-60
2021/08/20 11:32:28;;;;;;;4.40;3.45;;;25.30;59.50;;;;;;5023731;28;20060;-60
2021/08/20 11:34:54;;;;;;;3.25;2.92;;;25.40;59.40;;;;;;5017447;28;20385;-59
2021/08/20 11:37:19;;;;;;;3.67;3.22;;;25.40;59.00;;;;;;5020038;28;20507;-59
2021/08/20 11:40:07;;;;;;;3.65;2.97;;;25.40;59.10;;;;;;5022339;28;20448;-59
2021/08/20 11:42:34;;;;;;;3.70;2.90;;;25.50;59.10;;;;;;5020908;28;20040;-60
2021/08/20 11:45:21;;;;;;;2.75;2.50;;;25.50;58.90;;;;;;5020536;28;20438;-60
2021/08/20 11:47:47;;;;;;;3.72;2.60;;;25.60;58.60;;;;;;5015988;28;20384;-60
2021/08/20 11:50:13;;;;;;;3.10;2.70;;;25.60;58.60;;;;;;5016621;28;20034;-59
2021/08/20 11:52:49;;;;;;;3.30;2.97;;;25.60;58.50;;;;;;5023775;28;20481;-59
2021/08/20 11:55:16;;;;;;;5.43;3.00;;;25.70;58.20;;;;;;5022356;28;20104;-58
2021/08/20 11:57:42;;;;;;;3.67;2.97;;;25.60;58.20;;;;;;5023505;28;20090;-59
2021/08/20 12:00:08;;;;;;;4.07;3.15;;;25.70;58.00;;;;;;5025292;28;20037;-59
2021/08/20 12:02:33;;;;;;;2.88;2.53;;;25.70;57.90;;;;;;5021689;28;20033;-60
2021/08/20 12:05:18;;;;;;;3.47;2.90;;;25.70;57.90;;;;;;5021495;28;20026;-60
2021/08/20 12:07:44;;;;;;;3.60;2.92;;;25.70;57.70;;;;;;5024379;28;20084;-58
2021/08/20 12:10:12;;;;;;;4.80;3.35;;;25.70;58.00;;;;;;5018031;28;20068;-59
2021/08/20 12:12:41;;;;;;;3.15;2.60;;;25.70;58.10;;;;;;5022128;28;20026;-60
2021/08/20 12:15:08;;;;;;;4.47;2.88;;;25.70;58.80;;;;;;5022496;28;20366;-61
2021/08/20 12:17:34;;;;;;;4.10;2.78;;;25.70;58.10;;;;;;5023370;28;20183;-60
2021/08/20 12:20:21;;;;;;;3.83;3.15;;;25.70;58.30;;;;;;5023415;28;20021;-60
2021/08/20 12:22:50;;;;;;;6.18;2.95;;;25.70;58.20;;;;;;5020982;28;20861;-60
2021/08/20 12:25:17;;;;;;;4.57;2.78;;;25.70;58.30;;;;;;5020322;28;20593;-61
2021/08/20 12:27:45;;;;;;;3.70;2.78;;;25.80;58.40;;;;;;5030254;28;20041;-59
2021/08/20 12:30:13;;;;;;;3.00;2.70;;;25.80;58.30;;;;;;5028590;28;20469;-59
2021/08/20 12:32:44;;;;;;;3.13;2.80;;;25.80;58.20;;;;;;5025644;28;20724;-61
2021/08/20 12:35:18;;;;;;;5.00;2.58;;;25.80;58.20;;;;;;5022109;28;20037;-58
2021/08/20 12:38:08;;;;;;;5.75;2.80;;;25.80;58.10;;;;;;5025761;28;20059;-60
2021/08/20 12:40:35;;;;;;;3.10;2.50;;;25.80;58.00;;;;;;5024587;28;20033;-60
2021/08/20 12:43:00;;;;;;;3.30;2.30;;;25.90;57.90;;;;;;5024816;28;20052;-59
2021/08/20 12:45:26;;;;;;;3.05;2.75;;;25.90;57.80;;;;;;5027700;28;20037;-60
2021/08/20 12:48:08;;;;;;;2.70;2.47;;;25.90;57.80;;;;;;5031976;28;20029;-58
2021/08/20 12:50:36;;;;;;;3.20;2.38;;;25.90;57.70;;;;;;5030888;28;20112;-58